sensor_id;sensor_type;location;lat;lon;timestamp;temperature;humidity
67555;HTU21D;54385;53.516;49.456;2023-03-20T00:01:23;2.05;81.19
67555;HTU21D;54385;53.516;49.456;2023-03-20T00:03:51;1.99;81.39
67555;HTU21D;54385;53.516;49.456;2023-03-20T00:06:20;1.94;81.37
67555;HTU21D;54385;53.516;49.456;2023-03-20T00:08:48;1.87;81.49
67555;HTU21D;54385;53.516;49.456;2023-03-20T00:11:30;1.95;81.46
67555;HTU21D;54385;53.516;49.456;2023-03-20T00:14:09;1.97;81.44
67555;HTU21D;54385;53.516;49.456;2023-03-20T00:16:41;1.95;81.30
67555;HTU21D;54385;53.516;49.456;2023-03-20T00:19:15;1.81;81.81
67555;HTU21D;54385;53.516;49.456;2023-03-20T00:21:46;1.83;81.87
67555;HTU21D;54385;53.516;49.456;2023-03-20T00:24:13;1.83;81.97
67555;HTU21D;54385;53.516;49.456;2023-03-20T00:26:40;1.84;81.88
67555;HTU21D;54385;53.516;49.456;2023-03-20T00:29:09;1.79;82.05
67555;HTU21D;54385;53.516;49.456;2023-03-20T00:31:40;1.84;81.94
67555;HTU21D;54385;53.516;49.456;2023-03-20T00:34:12;1.79;82.17
67555;HTU21D;54385;53.516;49.456;2023-03-20T00:36:39;1.72;82.20
67555;HTU21D;54385;53.516;49.456;2023-03-20T00:39:06;1.67;82.65
67555;HTU21D;54385;53.516;49.456;2023-03-20T00:41:36;1.56;83.13
67555;HTU21D;54385;53.516;49.456;2023-03-20T00:44:25;1.66;83.04
67555;HTU21D;54385;53.516;49.456;2023-03-20T00:46:54;1.61;82.93
67555;HTU21D;54385;53.516;49.456;2023-03-20T00:49:27;1.55;83.20
67555;HTU21D;54385;53.516;49.456;2023-03-20T00:51:54;1.62;82.90
67555;HTU21D;54385;53.516;49.456;2023-03-20T00:54:21;1.70;82.68
67555;HTU21D;54385;53.516;49.456;2023-03-20T00:57:00;1.67;82.63
67555;HTU21D;54385;53.516;49.456;2023-03-20T00:59:33;1.66;82.45
67555;HTU21D;54385;53.516;49.456;2023-03-20T01:02:02;1.58;82.35
67555;HTU21D;54385;53.516;49.456;2023-03-20T01:04:39;1.58;82.62
67555;HTU21D;54385;53.516;49.456;2023-03-20T01:07:09;1.58;82.37
67555;HTU21D;54385;53.516;49.456;2023-03-20T01:09:37;1.55;82.37
67555;HTU21D;54385;53.516;49.456;2023-03-20T01:12:04;1.60;82.21
67555;HTU21D;54385;53.516;49.456;2023-03-20T01:14:33;1.58;82.12
67555;HTU21D;54385;53.516;49.456;2023-03-20T01:16:59;1.63;82.04
67555;HTU21D;54385;53.516;49.456;2023-03-20T01:19:26;1.62;82.11
67555;HTU21D;54385;53.516;49.456;2023-03-20T01:21:52;1.65;81.97
67555;HTU21D;54385;53.516;49.456;2023-03-20T01:24:19;1.60;82.36
67555;HTU21D;54385;53.516;49.456;2023-03-20T01:26:45;1.63;82.10
67555;HTU21D;54385;53.516;49.456;2023-03-20T01:29:23;1.64;82.03
67555;HTU21D;54385;53.516;49.456;2023-03-20T01:31:51;1.60;82.06
67555;HTU21D;54385;53.516;49.456;2023-03-20T01:34:18;1.51;82.27
67555;HTU21D;54385;53.516;49.456;2023-03-20T01:36:56;1.42;82.75
67555;HTU21D;54385;53.516;49.456;2023-03-20T01:39:34;1.40;82.79
67555;HTU21D;54385;53.516;49.456;2023-03-20T01:42:05;1.32;83.25
67555;HTU21D;54385;53.516;49.456;2023-03-20T01:44:34;1.28;83.44
67555;HTU21D;54385;53.516;49.456;2023-03-20T01:47:02;1.37;83.16
67555;HTU21D;54385;53.516;49.456;2023-03-20T01:52:34;1.26;83.61
67555;HTU21D;54385;53.516;49.456;2023-03-20T01:55:01;1.27;83.68
67555;HTU21D;54385;53.516;49.456;2023-03-20T01:57:29;1.27;83.74
67555;HTU21D;54385;53.516;49.456;2023-03-20T02:00:03;1.27;83.84
67555;HTU21D;54385;53.516;49.456;2023-03-20T02:02:31;1.34;83.73
67555;HTU21D;54385;53.516;49.456;2023-03-20T02:05:02;1.26;83.64
67555;HTU21D;54385;53.516;49.456;2023-03-20T02:07:30;1.24;83.87
67555;HTU21D;54385;53.516;49.456;2023-03-20T02:09:57;1.24;84.16
67555;HTU21D;54385;53.516;49.456;2023-03-20T02:12:24;1.32;83.93
67555;HTU21D;54385;53.516;49.456;2023-03-20T02:14:51;1.40;83.60
67555;HTU21D;54385;53.516;49.456;2023-03-20T02:17:21;1.39;83.36
67555;HTU21D;54385;53.516;49.456;2023-03-20T02:22:59;1.48;83.05
67555;HTU21D;54385;53.516;49.456;2023-03-20T02:34:13;1.43;82.98
67555;HTU21D;54385;53.516;49.456;2023-03-20T02:37:17;1.34;83.41
67555;HTU21D;54385;53.516;49.456;2023-03-20T02:47:47;1.36;83.62
67555;HTU21D;54385;53.516;49.456;2023-03-20T02:51:11;1.39;83.40
67555;HTU21D;54385;53.516;49.456;2023-03-20T02:56:46;1.36;83.28
67555;HTU21D;54385;53.516;49.456;2023-03-20T03:02:09;1.46;83.26
67555;HTU21D;54385;53.516;49.456;2023-03-20T03:04:43;1.46;83.17
67555;HTU21D;54385;53.516;49.456;2023-03-20T03:07:14;1.47;83.15
67555;HTU21D;54385;53.516;49.456;2023-03-20T03:09:47;1.49;82.96
67555;HTU21D;54385;53.516;49.456;2023-03-20T03:12:20;1.51;83.02
67555;HTU21D;54385;53.516;49.456;2023-03-20T03:14:54;1.56;82.59
67555;HTU21D;54385;53.516;49.456;2023-03-20T03:17:25;1.54;82.56
67555;HTU21D;54385;53.516;49.456;2023-03-20T03:19:58;1.49;82.92
67555;HTU21D;54385;53.516;49.456;2023-03-20T03:22:27;1.37;83.48
67555;HTU21D;54385;53.516;49.456;2023-03-20T03:24:53;1.43;83.25
67555;HTU21D;54385;53.516;49.456;2023-03-20T03:27:33;1.43;83.37
67555;HTU21D;54385;53.516;49.456;2023-03-20T03:30:06;1.50;82.93
67555;HTU21D;54385;53.516;49.456;2023-03-20T03:32:48;1.53;82.73
67555;HTU21D;54385;53.516;49.456;2023-03-20T03:35:19;1.58;82.78
67555;HTU21D;54385;53.516;49.456;2023-03-20T03:38:06;1.71;82.10
67555;HTU21D;54385;53.516;49.456;2023-03-20T03:40:48;1.78;82.39
67555;HTU21D;54385;53.516;49.456;2023-03-20T03:48:35;1.84;81.65
67555;HTU21D;54385;53.516;49.456;2023-03-20T03:51:09;1.80;81.57
67555;HTU21D;54385;53.516;49.456;2023-03-20T03:54:12;1.84;81.55
67555;HTU21D;54385;53.516;49.456;2023-03-20T03:56:43;1.90;81.32
67555;HTU21D;54385;53.516;49.456;2023-03-20T03:59:35;2.02;81.04
67555;HTU21D;54385;53.516;49.456;2023-03-20T04:02:04;2.05;80.87
67555;HTU21D;54385;53.516;49.456;2023-03-20T04:04:37;1.98;80.97
67555;HTU21D;54385;53.516;49.456;2023-03-20T04:07:10;1.96;81.12
67555;HTU21D;54385;53.516;49.456;2023-03-20T04:09:38;1.90;81.61
67555;HTU21D;54385;53.516;49.456;2023-03-20T04:12:05;1.94;81.13
67555;HTU21D;54385;53.516;49.456;2023-03-20T04:14:31;2.05;81.05
67555;HTU21D;54385;53.516;49.456;2023-03-20T04:17:03;2.03;80.86
67555;HTU21D;54385;53.516;49.456;2023-03-20T04:19:30;2.02;80.69
67555;HTU21D;54385;53.516;49.456;2023-03-20T04:21:57;1.98;80.93
67555;HTU21D;54385;53.516;49.456;2023-03-20T04:24:27;2.06;81.01
67555;HTU21D;54385;53.516;49.456;2023-03-20T04:26:53;2.05;80.81
67555;HTU21D;54385;53.516;49.456;2023-03-20T04:29:22;2.07;80.94
67555;HTU21D;54385;53.516;49.456;2023-03-20T04:31:52;2.09;81.04
67555;HTU21D;54385;53.516;49.456;2023-03-20T04:34:19;2.11;81.01
67555;HTU21D;54385;53.516;49.456;2023-03-20T04:36:46;2.07;81.29
67555;HTU21D;54385;53.516;49.456;2023-03-20T04:39:13;1.94;81.51
67555;HTU21D;54385;53.516;49.456;2023-03-20T04:41:39;1.99;81.58
67555;HTU21D;54385;53.516;49.456;2023-03-20T04:44:06;2.02;81.66
67555;HTU21D;54385;53.516;49.456;2023-03-20T04:46:32;2.13;81.35
67555;HTU21D;54385;53.516;49.456;2023-03-20T04:48:59;2.16;81.11
67555;HTU21D;54385;53.516;49.456;2023-03-20T04:51:25;2.19;80.69
67555;HTU21D;54385;53.516;49.456;2023-03-20T04:53:52;2.05;80.86
67555;HTU21D;54385;53.516;49.456;2023-03-20T04:56:19;2.07;81.30
67555;HTU21D;54385;53.516;49.456;2023-03-20T04:58:45;2.17;80.68
67555;HTU21D;54385;53.516;49.456;2023-03-20T05:01:12;2.29;80.60
67555;HTU21D;54385;53.516;49.456;2023-03-20T05:03:38;2.30;80.11
67555;HTU21D;54385;53.516;49.456;2023-03-20T05:06:07;2.29;80.19
67555;HTU21D;54385;53.516;49.456;2023-03-20T05:08:33;2.34;79.88
67555;HTU21D;54385;53.516;49.456;2023-03-20T05:11:00;2.29;79.84
67555;HTU21D;54385;53.516;49.456;2023-03-20T05:13:26;2.29;79.55
67555;HTU21D;54385;53.516;49.456;2023-03-20T05:15:53;2.30;79.85
67555;HTU21D;54385;53.516;49.456;2023-03-20T05:18:19;2.42;79.63
67555;HTU21D;54385;53.516;49.456;2023-03-20T05:20:48;2.45;78.95
67555;HTU21D;54385;53.516;49.456;2023-03-20T05:23:14;2.36;78.98
67555;HTU21D;54385;53.516;49.456;2023-03-20T05:25:41;2.26;79.48
67555;HTU21D;54385;53.516;49.456;2023-03-20T05:28:07;2.22;79.57
67555;HTU21D;54385;53.516;49.456;2023-03-20T05:30:34;2.23;79.60
67555;HTU21D;54385;53.516;49.456;2023-03-20T05:33:00;2.32;79.40
67555;HTU21D;54385;53.516;49.456;2023-03-20T05:35:27;2.36;79.04
67555;HTU21D;54385;53.516;49.456;2023-03-20T05:37:53;2.44;78.85
67555;HTU21D;54385;53.516;49.456;2023-03-20T05:40:20;2.38;78.69
67555;HTU21D;54385;53.516;49.456;2023-03-20T05:42:49;2.37;78.92
67555;HTU21D;54385;53.516;49.456;2023-03-20T05:45:16;2.22;79.40
67555;HTU21D;54385;53.516;49.456;2023-03-20T05:47:45;2.45;79.19
67555;HTU21D;54385;53.516;49.456;2023-03-20T05:50:12;2.67;78.43
67555;HTU21D;54385;53.516;49.456;2023-03-20T05:52:41;2.64;78.05
67555;HTU21D;54385;53.516;49.456;2023-03-20T05:55:08;2.78;77.53
67555;HTU21D;54385;53.516;49.456;2023-03-20T05:57:35;2.60;77.75
67555;HTU21D;54385;53.516;49.456;2023-03-20T06:00:02;2.49;78.05
67555;HTU21D;54385;53.516;49.456;2023-03-20T06:02:29;2.43;78.56
67555;HTU21D;54385;53.516;49.456;2023-03-20T06:04:55;2.38;78.46
67555;HTU21D;54385;53.516;49.456;2023-03-20T06:07:22;2.42;78.62
67555;HTU21D;54385;53.516;49.456;2023-03-20T06:09:48;2.36;78.41
67555;HTU21D;54385;53.516;49.456;2023-03-20T06:12:15;2.34;78.85
67555;HTU21D;54385;53.516;49.456;2023-03-20T06:14:44;2.43;78.32
67555;HTU21D;54385;53.516;49.456;2023-03-20T06:17:11;2.61;78.50
67555;HTU21D;54385;53.516;49.456;2023-03-20T06:19:40;2.69;77.68
67555;HTU21D;54385;53.516;49.456;2023-03-20T06:22:14;2.75;77.48
67555;HTU21D;54385;53.516;49.456;2023-03-20T06:24:40;2.71;77.27
67555;HTU21D;54385;53.516;49.456;2023-03-20T06:27:08;2.53;77.94
67555;HTU21D;54385;53.516;49.456;2023-03-20T06:29:34;2.43;78.11
67555;HTU21D;54385;53.516;49.456;2023-03-20T06:32:01;2.31;78.56
67555;HTU21D;54385;53.516;49.456;2023-03-20T06:34:27;2.29;78.67
67555;HTU21D;54385;53.516;49.456;2023-03-20T06:36:55;2.45;79.22
67555;HTU21D;54385;53.516;49.456;2023-03-20T06:39:21;2.80;77.81
67555;HTU21D;54385;53.516;49.456;2023-03-20T06:41:48;2.76;77.49
67555;HTU21D;54385;53.516;49.456;2023-03-20T06:44:17;2.78;77.37
67555;HTU21D;54385;53.516;49.456;2023-03-20T06:46:44;2.84;76.98
67555;HTU21D;54385;53.516;49.456;2023-03-20T06:49:10;2.79;76.95
67555;HTU21D;54385;53.516;49.456;2023-03-20T06:51:37;2.67;77.35
67555;HTU21D;54385;53.516;49.456;2023-03-20T06:54:05;2.65;77.55
67555;HTU21D;54385;53.516;49.456;2023-03-20T06:56:32;2.93;77.68
67555;HTU21D;54385;53.516;49.456;2023-03-20T06:58:58;2.86;76.46
67555;HTU21D;54385;53.516;49.456;2023-03-20T07:01:24;2.64;77.63
67555;HTU21D;54385;53.516;49.456;2023-03-20T07:03:52;2.72;77.65
67555;HTU21D;54385;53.516;49.456;2023-03-20T07:06:22;2.82;77.50
67555;HTU21D;54385;53.516;49.456;2023-03-20T07:08:52;3.02;76.92
67555;HTU21D;54385;53.516;49.456;2023-03-20T07:11:19;3.12;76.26
67555;HTU21D;54385;53.516;49.456;2023-03-20T07:13:45;3.30;76.10
67555;HTU21D;54385;53.516;49.456;2023-03-20T07:16:12;3.25;75.70
67555;HTU21D;54385;53.516;49.456;2023-03-20T07:18:38;3.21;75.70
67555;HTU21D;54385;53.516;49.456;2023-03-20T07:21:05;3.34;75.87
67555;HTU21D;54385;53.516;49.456;2023-03-20T07:23:32;3.18;75.70
67555;HTU21D;54385;53.516;49.456;2023-03-20T07:26:02;2.96;76.64
67555;HTU21D;54385;53.516;49.456;2023-03-20T07:28:30;2.87;76.82
67555;HTU21D;54385;53.516;49.456;2023-03-20T07:30:56;2.84;77.29
67555;HTU21D;54385;53.516;49.456;2023-03-20T07:33:23;3.02;77.11
67555;HTU21D;54385;53.516;49.456;2023-03-20T07:35:54;3.18;76.28
67555;HTU21D;54385;53.516;49.456;2023-03-20T07:38:21;3.29;75.82
67555;HTU21D;54385;53.516;49.456;2023-03-20T07:40:48;3.28;74.84
67555;HTU21D;54385;53.516;49.456;2023-03-20T07:43:16;3.11;76.06
67555;HTU21D;54385;53.516;49.456;2023-03-20T07:45:42;3.24;75.77
67555;HTU21D;54385;53.516;49.456;2023-03-20T07:48:09;3.32;75.19
67555;HTU21D;54385;53.516;49.456;2023-03-20T07:50:35;3.35;75.30
67555;HTU21D;54385;53.516;49.456;2023-03-20T07:53:01;2.99;76.13
67555;HTU21D;54385;53.516;49.456;2023-03-20T07:55:29;3.04;77.09
67555;HTU21D;54385;53.516;49.456;2023-03-20T07:57:58;3.26;75.86
67555;HTU21D;54385;53.516;49.456;2023-03-20T08:00:24;3.35;75.77
67555;HTU21D;54385;53.516;49.456;2023-03-20T08:02:51;3.45;74.99
67555;HTU21D;54385;53.516;49.456;2023-03-20T08:05:17;3.57;74.95
67555;HTU21D;54385;53.516;49.456;2023-03-20T08:07:44;3.75;74.35
67555;HTU21D;54385;53.516;49.456;2023-03-20T08:10:11;3.79;73.50
67555;HTU21D;54385;53.516;49.456;2023-03-20T08:12:38;3.82;73.68
67555;HTU21D;54385;53.516;49.456;2023-03-20T08:15:04;3.84;73.73
67555;HTU21D;54385;53.516;49.456;2023-03-20T08:17:31;4.05;73.44
67555;HTU21D;54385;53.516;49.456;2023-03-20T08:19:58;4.02;72.65
67555;HTU21D;54385;53.516;49.456;2023-03-20T08:22:24;4.08;72.41
67555;HTU21D;54385;53.516;49.456;2023-03-20T08:24:51;4.07;72.83
67555;HTU21D;54385;53.516;49.456;2023-03-20T08:27:17;4.13;72.77
67555;HTU21D;54385;53.516;49.456;2023-03-20T08:29:44;4.06;72.45
67555;HTU21D;54385;53.516;49.456;2023-03-20T08:32:12;4.12;72.80
67555;HTU21D;54385;53.516;49.456;2023-03-20T08:34:38;4.07;72.75
67555;HTU21D;54385;53.516;49.456;2023-03-20T08:37:08;3.97;72.84
67555;HTU21D;54385;53.516;49.456;2023-03-20T08:39:37;3.76;73.60
67555;HTU21D;54385;53.516;49.456;2023-03-20T08:42:14;3.71;74.59
67555;HTU21D;54385;53.516;49.456;2023-03-20T08:44:40;3.94;73.40
67555;HTU21D;54385;53.516;49.456;2023-03-20T08:47:07;3.95;73.28
67555;HTU21D;54385;53.516;49.456;2023-03-20T08:49:35;4.16;73.42
67555;HTU21D;54385;53.516;49.456;2023-03-20T08:52:02;3.95;72.69
67555;HTU21D;54385;53.516;49.456;2023-03-20T08:54:29;3.89;73.20
67555;HTU21D;54385;53.516;49.456;2023-03-20T08:56:56;3.73;73.67
67555;HTU21D;54385;53.516;49.456;2023-03-20T08:59:22;3.78;73.51
67555;HTU21D;54385;53.516;49.456;2023-03-20T09:01:49;3.80;73.75
67555;HTU21D;54385;53.516;49.456;2023-03-20T09:04:16;3.57;73.88
67555;HTU21D;54385;53.516;49.456;2023-03-20T09:06:52;3.82;74.39
67555;HTU21D;54385;53.516;49.456;2023-03-20T09:09:18;4.17;72.85
67555;HTU21D;54385;53.516;49.456;2023-03-20T09:11:46;4.29;72.24
67555;HTU21D;54385;53.516;49.456;2023-03-20T09:14:13;4.16;72.16
67555;HTU21D;54385;53.516;49.456;2023-03-20T09:16:40;3.94;73.06
67555;HTU21D;54385;53.516;49.456;2023-03-20T09:19:07;4.00;73.21
67555;HTU21D;54385;53.516;49.456;2023-03-20T09:21:33;4.17;73.29
67555;HTU21D;54385;53.516;49.456;2023-03-20T09:24:03;4.46;71.61
67555;HTU21D;54385;53.516;49.456;2023-03-20T09:26:29;4.37;71.78
67555;HTU21D;54385;53.516;49.456;2023-03-20T09:28:55;4.14;71.62
67555;HTU21D;54385;53.516;49.456;2023-03-20T09:31:22;4.07;72.66
67555;HTU21D;54385;53.516;49.456;2023-03-20T09:33:49;4.35;72.39
67555;HTU21D;54385;53.516;49.456;2023-03-20T09:36:15;4.62;71.19
67555;HTU21D;54385;53.516;49.456;2023-03-20T09:38:42;4.79;70.47
67555;HTU21D;54385;53.516;49.456;2023-03-20T09:41:22;4.83;69.79
67555;HTU21D;54385;53.516;49.456;2023-03-20T09:46:48;4.53;70.71
67555;HTU21D;54385;53.516;49.456;2023-03-20T09:49:34;4.77;70.64
67555;HTU21D;54385;53.516;49.456;2023-03-20T09:54:44;4.64;70.50
67555;HTU21D;54385;53.516;49.456;2023-03-20T09:57:27;4.32;70.64
67555;HTU21D;54385;53.516;49.456;2023-03-20T10:00:00;4.23;71.32
67555;HTU21D;54385;53.516;49.456;2023-03-20T10:02:35;4.37;71.35
67555;HTU21D;54385;53.516;49.456;2023-03-20T10:05:03;4.49;70.38
67555;HTU21D;54385;53.516;49.456;2023-03-20T10:07:36;4.22;71.12
67555;HTU21D;54385;53.516;49.456;2023-03-20T10:10:06;4.14;71.60
67555;HTU21D;54385;53.516;49.456;2023-03-20T10:12:59;4.03;72.25
67555;HTU21D;54385;53.516;49.456;2023-03-20T10:20:54;4.15;72.74
67555;HTU21D;54385;53.516;49.456;2023-03-20T10:23:56;4.29;71.59
67555;HTU21D;54385;53.516;49.456;2023-03-20T10:26:22;4.36;70.95
67555;HTU21D;54385;53.516;49.456;2023-03-20T10:29:00;4.18;71.38
67555;HTU21D;54385;53.516;49.456;2023-03-20T10:31:32;4.27;71.36
67555;HTU21D;54385;53.516;49.456;2023-03-20T10:34:19;4.23;71.87
67555;HTU21D;54385;53.516;49.456;2023-03-20T10:36:52;4.12;71.79
67555;HTU21D;54385;53.516;49.456;2023-03-20T10:42:23;4.18;72.54
67555;HTU21D;54385;53.516;49.456;2023-03-20T10:47:57;4.79;70.35
67555;HTU21D;54385;53.516;49.456;2023-03-20T10:50:32;4.58;70.49
67555;HTU21D;54385;53.516;49.456;2023-03-20T10:53:04;4.65;70.75
67555;HTU21D;54385;53.516;49.456;2023-03-20T10:55:41;4.05;71.35
67555;HTU21D;54385;53.516;49.456;2023-03-20T10:58:21;4.14;72.38
67555;HTU21D;54385;53.516;49.456;2023-03-20T11:00:48;4.20;71.84
67555;HTU21D;54385;53.516;49.456;2023-03-20T11:03:27;4.57;70.97
67555;HTU21D;54385;53.516;49.456;2023-03-20T11:06:27;4.72;70.64
67555;HTU21D;54385;53.516;49.456;2023-03-20T11:08:53;4.73;70.11
67555;HTU21D;54385;53.516;49.456;2023-03-20T11:11:26;4.64;70.28
67555;HTU21D;54385;53.516;49.456;2023-03-20T11:13:56;4.74;70.38
67555;HTU21D;54385;53.516;49.456;2023-03-20T11:16:30;4.48;70.58
67555;HTU21D;54385;53.516;49.456;2023-03-20T11:19:06;4.30;71.33
67555;HTU21D;54385;53.516;49.456;2023-03-20T11:21:43;4.35;71.29
67555;HTU21D;54385;53.516;49.456;2023-03-20T11:24:41;4.27;71.69
67555;HTU21D;54385;53.516;49.456;2023-03-20T11:27:13;4.23;71.58
67555;HTU21D;54385;53.516;49.456;2023-03-20T11:29:42;4.26;71.38
67555;HTU21D;54385;53.516;49.456;2023-03-20T11:32:27;3.99;72.04
67555;HTU21D;54385;53.516;49.456;2023-03-20T11:35:18;3.95;72.48
67555;HTU21D;54385;53.516;49.456;2023-03-20T11:37:48;4.06;72.36
67555;HTU21D;54385;53.516;49.456;2023-03-20T11:40:21;4.05;72.41
67555;HTU21D;54385;53.516;49.456;2023-03-20T11:43:02;4.05;72.59
67555;HTU21D;54385;53.516;49.456;2023-03-20T11:45:39;4.09;72.06
67555;HTU21D;54385;53.516;49.456;2023-03-20T11:48:17;4.07;72.20
67555;HTU21D;54385;53.516;49.456;2023-03-20T11:50:50;4.07;72.90
67555;HTU21D;54385;53.516;49.456;2023-03-20T11:53:38;4.06;72.45
67555;HTU21D;54385;53.516;49.456;2023-03-20T11:56:21;3.89;73.03
67555;HTU21D;54385;53.516;49.456;2023-03-20T12:01:44;4.21;72.05
67555;HTU21D;54385;53.516;49.456;2023-03-20T12:04:27;4.28;71.97
67555;HTU21D;54385;53.516;49.456;2023-03-20T12:07:02;4.08;72.22
67555;HTU21D;54385;53.516;49.456;2023-03-20T12:14:50;3.99;72.40
67555;HTU21D;54385;53.516;49.456;2023-03-20T12:25:46;3.68;73.97
67555;HTU21D;54385;53.516;49.456;2023-03-20T12:28:29;3.74;73.38
67555;HTU21D;54385;53.516;49.456;2023-03-20T12:31:14;3.90;73.08
67555;HTU21D;54385;53.516;49.456;2023-03-20T12:36:40;4.26;72.00
67555;HTU21D;54385;53.516;49.456;2023-03-20T12:39:13;4.29;71.82
67555;HTU21D;54385;53.516;49.456;2023-03-20T12:50:09;4.28;71.74
67555;HTU21D;54385;53.516;49.456;2023-03-20T12:56:04;4.07;72.41
67555;HTU21D;54385;53.516;49.456;2023-03-20T13:01:31;3.97;73.18
67555;HTU21D;54385;53.516;49.456;2023-03-20T13:04:30;4.06;73.12
67555;HTU21D;54385;53.516;49.456;2023-03-20T13:07:02;4.00;72.80
67555;HTU21D;54385;53.516;49.456;2023-03-20T13:15:33;3.86;72.90
67555;HTU21D;54385;53.516;49.456;2023-03-20T13:18:12;3.75;73.02
67555;HTU21D;54385;53.516;49.456;2023-03-20T13:20:55;3.59;73.71
67555;HTU21D;54385;53.516;49.456;2023-03-20T13:31:30;2.87;76.82
67555;HTU21D;54385;53.516;49.456;2023-03-20T13:37:04;2.87;77.11
67555;HTU21D;54385;53.516;49.456;2023-03-20T13:39:50;2.78;77.64
67555;HTU21D;54385;53.516;49.456;2023-03-20T13:42:22;2.82;77.56
67555;HTU21D;54385;53.516;49.456;2023-03-20T13:44:53;2.76;77.61
67555;HTU21D;54385;53.516;49.456;2023-03-20T13:47:24;2.85;77.70
67555;HTU21D;54385;53.516;49.456;2023-03-20T13:50:24;2.89;77.34
67555;HTU21D;54385;53.516;49.456;2023-03-20T13:53:07;2.88;77.37
67555;HTU21D;54385;53.516;49.456;2023-03-20T13:56:13;3.08;76.80
67555;HTU21D;54385;53.516;49.456;2023-03-20T14:02:32;2.83;77.29
67555;HTU21D;54385;53.516;49.456;2023-03-20T14:05:19;2.93;77.17
67555;HTU21D;54385;53.516;49.456;2023-03-20T14:07:49;2.73;77.49
67555;HTU21D;54385;53.516;49.456;2023-03-20T14:15:18;2.66;78.03
67555;HTU21D;54385;53.516;49.456;2023-03-20T14:17:47;2.69;77.89
67555;HTU21D;54385;53.516;49.456;2023-03-20T14:20:33;2.59;78.25
67555;HTU21D;54385;53.516;49.456;2023-03-20T14:23:01;2.44;78.73
67555;HTU21D;54385;53.516;49.456;2023-03-20T14:25:35;2.35;79.30
67555;HTU21D;54385;53.516;49.456;2023-03-20T14:30:42;2.43;79.26
67555;HTU21D;54385;53.516;49.456;2023-03-20T14:33:23;2.39;79.12
67555;HTU21D;54385;53.516;49.456;2023-03-20T14:36:11;2.36;79.30
67555;HTU21D;54385;53.516;49.456;2023-03-20T14:38:52;2.27;80.01
67555;HTU21D;54385;53.516;49.456;2023-03-20T14:44:23;2.50;79.43
67555;HTU21D;54385;53.516;49.456;2023-03-20T14:46:58;2.36;79.62
67555;HTU21D;54385;53.516;49.456;2023-03-20T14:52:28;2.29;80.07
67555;HTU21D;54385;53.516;49.456;2023-03-20T14:57:44;2.31;79.90
67555;HTU21D;54385;53.516;49.456;2023-03-20T15:02:52;2.41;79.53
67555;HTU21D;54385;53.516;49.456;2023-03-20T15:05:30;2.36;79.67
67555;HTU21D;54385;53.516;49.456;2023-03-20T15:10:36;2.42;79.58
67555;HTU21D;54385;53.516;49.456;2023-03-20T15:13:09;2.36;79.49
67555;HTU21D;54385;53.516;49.456;2023-03-20T15:15:36;2.26;79.98
67555;HTU21D;54385;53.516;49.456;2023-03-20T15:18:12;2.26;80.20
67555;HTU21D;54385;53.516;49.456;2023-03-20T15:20:41;2.17;80.29
67555;HTU21D;54385;53.516;49.456;2023-03-20T15:23:08;2.21;80.55
67555;HTU21D;54385;53.516;49.456;2023-03-20T15:25:42;2.32;80.01
67555;HTU21D;54385;53.516;49.456;2023-03-20T15:28:24;2.27;80.07
67555;HTU21D;54385;53.516;49.456;2023-03-20T15:30:55;2.27;80.17
67555;HTU21D;54385;53.516;49.456;2023-03-20T15:33:26;2.21;80.27
67555;HTU21D;54385;53.516;49.456;2023-03-20T15:35:56;2.36;80.06
67555;HTU21D;54385;53.516;49.456;2023-03-20T15:38:32;2.37;79.46
67555;HTU21D;54385;53.516;49.456;2023-03-20T15:41:02;2.31;79.71
67555;HTU21D;54385;53.516;49.456;2023-03-20T15:43:29;2.14;80.14
67555;HTU21D;54385;53.516;49.456;2023-03-20T15:45:56;2.19;80.24
67555;HTU21D;54385;53.516;49.456;2023-03-20T15:48:24;2.17;80.32
67555;HTU21D;54385;53.516;49.456;2023-03-20T15:50:54;2.10;80.53
67555;HTU21D;54385;53.516;49.456;2023-03-20T15:53:32;2.10;80.65
67555;HTU21D;54385;53.516;49.456;2023-03-20T15:56:06;2.10;80.62
67555;HTU21D;54385;53.516;49.456;2023-03-20T15:58:33;2.09;80.64
67555;HTU21D;54385;53.516;49.456;2023-03-20T16:01:02;2.10;80.60
67555;HTU21D;54385;53.516;49.456;2023-03-20T16:03:30;2.09;80.59
67555;HTU21D;54385;53.516;49.456;2023-03-20T16:05:59;2.07;80.64
67555;HTU21D;54385;53.516;49.456;2023-03-20T16:08:28;1.95;81.10
67555;HTU21D;54385;53.516;49.456;2023-03-20T16:11:01;2.02;81.33
67555;HTU21D;54385;53.516;49.456;2023-03-20T16:13:41;2.01;80.98
67555;HTU21D;54385;53.516;49.456;2023-03-20T16:16:13;1.97;81.04
67555;HTU21D;54385;53.516;49.456;2023-03-20T16:18:40;1.91;81.27
67555;HTU21D;54385;53.516;49.456;2023-03-20T16:21:27;1.94;81.17
67555;HTU21D;54385;53.516;49.456;2023-03-20T16:23:57;2.06;81.01
67555;HTU21D;54385;53.516;49.456;2023-03-20T16:26:26;2.15;80.63
67555;HTU21D;54385;53.516;49.456;2023-03-20T16:28:58;2.11;80.77
67555;HTU21D;54385;53.516;49.456;2023-03-20T16:31:27;1.99;80.96
67555;HTU21D;54385;53.516;49.456;2023-03-20T16:33:59;2.00;81.02
67555;HTU21D;54385;53.516;49.456;2023-03-20T16:36:31;2.00;80.94
67555;HTU21D;54385;53.516;49.456;2023-03-20T16:41:42;2.06;81.00
67555;HTU21D;54385;53.516;49.456;2023-03-20T16:44:16;2.07;81.01
67555;HTU21D;54385;53.516;49.456;2023-03-20T16:47:00;1.94;81.14
67555;HTU21D;54385;53.516;49.456;2023-03-20T16:52:07;1.81;81.62
67555;HTU21D;54385;53.516;49.456;2023-03-20T16:54:36;1.81;81.91
67555;HTU21D;54385;53.516;49.456;2023-03-20T16:57:07;1.83;82.02
67555;HTU21D;54385;53.516;49.456;2023-03-20T16:59:37;1.90;81.82
67555;HTU21D;54385;53.516;49.456;2023-03-20T17:02:16;1.90;81.81
67555;HTU21D;54385;53.516;49.456;2023-03-20T17:04:47;1.98;81.50
67555;HTU21D;54385;53.516;49.456;2023-03-20T17:07:16;2.03;81.24
67555;HTU21D;54385;53.516;49.456;2023-03-20T17:12:29;1.96;81.62
67555;HTU21D;54385;53.516;49.456;2023-03-20T17:14:57;2.00;81.20
67555;HTU21D;54385;53.516;49.456;2023-03-20T17:17:23;1.98;81.23
67555;HTU21D;54385;53.516;49.456;2023-03-20T17:19:53;1.97;81.30
67555;HTU21D;54385;53.516;49.456;2023-03-20T17:22:22;1.98;81.27
67555;HTU21D;54385;53.516;49.456;2023-03-20T17:24:49;2.01;81.02
67555;HTU21D;54385;53.516;49.456;2023-03-20T17:27:17;1.94;81.24
67555;HTU21D;54385;53.516;49.456;2023-03-20T17:29:45;1.87;81.49
67555;HTU21D;54385;53.516;49.456;2023-03-20T17:32:17;1.80;82.07
67555;HTU21D;54385;53.516;49.456;2023-03-20T17:34:44;1.84;82.06
67555;HTU21D;54385;53.516;49.456;2023-03-20T17:37:13;1.78;82.23
67555;HTU21D;54385;53.516;49.456;2023-03-20T17:39:40;1.77;82.30
67555;HTU21D;54385;53.516;49.456;2023-03-20T17:42:18;1.77;82.43
67555;HTU21D;54385;53.516;49.456;2023-03-20T17:44:46;1.72;82.68
67555;HTU21D;54385;53.516;49.456;2023-03-20T17:47:15;1.79;82.68
67555;HTU21D;54385;53.516;49.456;2023-03-20T17:49:43;1.77;82.60
67555;HTU21D;54385;53.516;49.456;2023-03-20T17:52:22;1.77;82.74
67555;HTU21D;54385;53.516;49.456;2023-03-20T17:55:08;1.84;82.63
67555;HTU21D;54385;53.516;49.456;2023-03-20T17:57:37;1.82;82.46